LROP Airport Information

Runway Information
Runway 08L Length 11484 ft width 148 ft
Elevation 313 ft Threshold 0 ft Heading 84
Runway 26R Length 11484 ft Width 148 ft
Elevation 303 ft Threshold 0 ft Heading 264
Runway 08R Length 11484 ft width 148 ft
Elevation 314 ft Threshold 0 ft Heading 84
Runway 26L Length 11484 ft Width 148 ft
Elevation 303 ft Threshold 0 ft Heading 264
Airport Frequencies
Type APP Name BUCURESTI Frequency 118.25 MHZ
Type ATIS Name OTOPENI AT Frequency 118.5 MHZ
Type GND Name OTOPENI GN Frequency 121.7 MHZ
Type TWR Name OTOPENI TW Frequency 120.9 MHZ
Airport Navaids
Type VOR-DME Name Floresti Frequency 112200 KHZ
Type NDB Name Otopeni Frequency 349 KHZ
Type NDB Name Otopeni Frequency 268 KHZ
Type NDB Name Otopeni Frequency 370 KHZ
Type VOR-DME Name Strejnic Frequency 113200 KHZ
Airport Weather Information & NOTAM
ADDS - METARS form results

(0128 UTC 25 May 2019)
Data provider http://aviationweather.gov/metar/data/
 
METAR text: LROP 250100Z 22006KT 5000 NSC 14/14 Q1009 R88/19//95 NOSIG
Conditions at: LROP (BUCHAREST/OTOPEN, RO) observed 0100 UTC 25 May 2019
Temperature: 14.0°C (57°F)
Dewpoint: 14.0°C (57°F) [RH = 100%]
Pressure (altimeter): 29.79 inches Hg (1009.0 mb)
Winds: from the SW (220 degrees) at 7 MPH (6 knots; 3.1 m/s)
Visibility: 3 miles ( 5 km)
Ceiling: at least 12,000 feet AGL
Clouds: sky clear below 12,000 feet AGL
Weather: no significant weather observed at this time

METAR text: LROP 250030Z 22002KT 5000 BR NSC 14/14 Q1009 R88/19//95 TEMPO 3000 BR
Conditions at: LROP (BUCHAREST/OTOPEN, RO) observed 0030 UTC 25 May 2019
Temperature: 14.0°C (57°F)
Dewpoint: 14.0°C (57°F) [RH = 100%]
Pressure (altimeter): 29.79 inches Hg (1009.0 mb)
Winds: from the SW (220 degrees) at 2 MPH (2 knots; 1.0 m/s)
Visibility: 3 miles ( 5 km)
Ceiling: at least 12,000 feet AGL
Clouds: sky clear below 12,000 feet AGL
Weather: BR  (mist)

Forecast for: LROP (BUCHAREST/OTOPEN, RO)
Text: TAF LROP 242300Z 2500/2524 VRB04KT CAVOK
Forecast period: 0000 UTC 25 May 2019 to 0000 UTC 26 May 2019
Forecast type: FROM: standard forecast or significant change
Winds: variable direction winds at 5 MPH (4 knots; 2.1 m/s)
Visibility: 6 or more miles 10+ km)
Ceiling: unknown
Clouds: missing
Weather: NSW  (no significant weather)
Text: TEMPO 2500/2504 3000 BR
Forecast period: 0000 to 0400 UTC 25 May 2019
Forecast type: TEMPORARY: The following changes expected for less than half the time period
Visibility: 1.86 miles (2.99 km)
Ceiling: unknown
Clouds: missing
Weather: BR  (mist)
Text: PROB40
Forecast period: 0900 to 1400 UTC 25 May 2019
Forecast type: TEMPORARY: The following changes expected for less than half the time period
Visibility: missing
Ceiling: at least 12,000 feet AGL
Clouds: scattered clouds at 4000 feet AGL
Weather: no significant weather forecast for this period